createdAt,value
2022-12-11T00:01:45.344Z,983.3
2022-12-11T00:07:04.193Z,983.3
2022-12-11T00:12:23.407Z,983.3
2022-12-11T00:17:43.022Z,983.3
2022-12-11T00:23:01.968Z,983.3
2022-12-11T00:28:21.606Z,983.4
2022-12-11T00:33:40.676Z,983.4
2022-12-11T00:39:00.190Z,983.4
2022-12-11T00:44:19.175Z,983.4
2022-12-11T00:49:38.969Z,983.4
2022-12-11T00:54:58.616Z,983.4
2022-12-11T01:00:17.609Z,983.4
2022-12-11T01:05:36.834Z,983.4
2022-12-11T01:10:56.100Z,983.4
2022-12-11T01:16:15.342Z,983.5
2022-12-11T01:21:34.501Z,983.5
2022-12-11T01:26:53.603Z,983.5
2022-12-11T01:32:13.260Z,983.5
2022-12-11T01:37:32.953Z,983.5
2022-12-11T01:42:51.998Z,983.4
2022-12-11T01:48:10.942Z,983.4
2022-12-11T01:53:29.886Z,983.5
2022-12-11T01:58:49.272Z,983.6
2022-12-11T02:04:08.271Z,983.6
2022-12-11T02:09:27.347Z,983.7
2022-12-11T02:14:45.955Z,983.6
2022-12-11T02:20:05.578Z,983.6
2022-12-11T02:25:24.866Z,983.6
2022-12-11T02:30:44.535Z,983.5
2022-12-11T02:36:03.718Z,983.5
2022-12-11T02:41:22.675Z,983.6
2022-12-11T02:46:42.342Z,983.6
2022-12-11T02:52:02.023Z,983.6
2022-12-11T02:57:21.106Z,983.6
2022-12-11T03:02:40.295Z,983.7
2022-12-11T03:07:59.800Z,983.6
2022-12-11T03:13:19.494Z,983.5
2022-12-11T03:18:39.325Z,983.5
2022-12-11T03:23:58.518Z,983.5
2022-12-11T03:29:18.340Z,983.5
2022-12-11T03:34:37.811Z,983.6
2022-12-11T03:39:57.266Z,983.6
2022-12-11T03:45:16.231Z,983.6
2022-12-11T03:50:35.205Z,983.6
2022-12-11T03:55:54.992Z,983.5
2022-12-11T04:01:14.062Z,983.6
2022-12-11T04:06:33.785Z,983.5
2022-12-11T04:11:53.062Z,983.4
2022-12-11T04:17:12.879Z,983.5
2022-12-11T04:22:31.974Z,983.5
2022-12-11T04:27:51.470Z,983.5
2022-12-11T04:33:10.484Z,983.5
2022-12-11T04:38:30.107Z,983.6
2022-12-11T04:43:49.401Z,983.4
2022-12-11T04:49:08.559Z,983.4
2022-12-11T04:54:28.169Z,983.5
2022-12-11T04:59:47.769Z,983.5
2022-12-11T05:05:07.278Z,983.4
2022-12-11T05:10:26.678Z,983.5
2022-12-11T05:15:45.735Z,983.5
2022-12-11T05:21:04.934Z,983.5
2022-12-11T05:26:23.992Z,983.5
2022-12-11T05:31:43.666Z,983.4
2022-12-11T05:37:02.648Z,983.4
2022-12-11T05:42:27.099Z,983.3
2022-12-11T05:47:41.842Z,983.3
2022-12-11T05:53:01.540Z,983.3
2022-12-11T05:58:20.581Z,983.3
2022-12-11T06:03:39.479Z,983.3
2022-12-11T06:08:58.422Z,983.3
2022-12-11T06:14:17.608Z,983.3
2022-12-11T06:19:37.755Z,983.2
2022-12-11T06:24:56.609Z,983.1
2022-12-11T06:30:15.476Z,983.1
2022-12-11T06:35:40.223Z,983.1
2022-12-11T06:40:54.507Z,983.1
2022-12-11T06:46:14.016Z,983.1
2022-12-11T06:51:33.024Z,983.1
2022-12-11T06:56:52.540Z,983.1
2022-12-11T07:02:12.400Z,983
2022-12-11T07:07:31.423Z,983
2022-12-11T07:12:50.543Z,983
2022-12-11T07:19:24.749Z,983.1
2022-12-11T07:23:31.121Z,983
2022-12-11T07:28:50.212Z,983.1
2022-12-11T07:34:08.260Z,983.1
2022-12-11T07:39:27.767Z,983.1
2022-12-11T07:44:46.711Z,983.1
2022-12-11T07:50:06.075Z,983.2
2022-12-11T07:55:25.667Z,983.2
2022-12-11T08:00:44.110Z,983.3
2022-12-11T08:06:03.116Z,983.4
2022-12-11T08:11:22.650Z,983.5
2022-12-11T08:16:41.955Z,983.5
2022-12-11T08:22:01.411Z,983.4
2022-12-11T08:27:20.860Z,983.5
2022-12-11T08:32:40.458Z,983.5
2022-12-11T08:38:00.255Z,983.5
2022-12-11T08:43:19.181Z,983.5
2022-12-11T08:48:37.992Z,983.4
2022-12-11T08:53:57.286Z,983.4
2022-12-11T08:59:16.819Z,983.3
2022-12-11T09:04:35.859Z,983.3
2022-12-11T09:09:55.571Z,983.3
2022-12-11T09:15:15.351Z,983.4
2022-12-11T09:20:34.277Z,983.4
2022-12-11T09:25:53.319Z,983.3
2022-12-11T09:31:12.263Z,983.3
2022-12-11T09:36:31.925Z,983.4
2022-12-11T09:41:52.465Z,983.4
2022-12-11T09:47:12.213Z,983.4
2022-12-11T09:52:31.282Z,983.3
2022-12-11T09:57:50.360Z,983.2
2022-12-11T10:03:09.897Z,983.1
2022-12-11T10:08:29.005Z,983.1
2022-12-11T10:13:47.847Z,983
2022-12-11T10:19:07.520Z,983
2022-12-11T10:24:57.788Z,983
2022-12-11T10:29:45.729Z,983
2022-12-11T10:35:05.266Z,983.1
2022-12-11T10:40:24.629Z,983
2022-12-11T10:45:43.919Z,983
2022-12-11T10:51:03.748Z,983
2022-12-11T10:56:23.443Z,983
2022-12-11T11:01:42.485Z,983
2022-12-11T11:07:02.264Z,982.9
2022-12-11T11:12:21.110Z,982.9
2022-12-11T11:17:48.581Z,982.8
2022-12-11T11:22:59.758Z,982.8
2022-12-11T11:28:19.214Z,982.8
2022-12-11T11:33:38.294Z,982.7
2022-12-11T11:38:58.130Z,982.7
2022-12-11T11:44:17.216Z,982.7
2022-12-11T11:49:36.436Z,982.6
2022-12-11T11:54:55.612Z,982.5
2022-12-11T12:00:14.901Z,982.5
2022-12-11T12:05:34.690Z,982.5
2022-12-11T12:10:53.576Z,982.5
2022-12-11T12:16:29.460Z,982.4
2022-12-11T12:21:31.875Z,982.4
2022-12-11T12:26:51.199Z,982.3
2022-12-11T12:32:10.652Z,982.3
2022-12-11T12:37:29.942Z,982.4
2022-12-11T12:42:48.943Z,982.4
2022-12-11T12:48:07.836Z,982.4
2022-12-11T12:53:26.869Z,982.4
2022-12-11T12:58:45.949Z,982.3
2022-12-11T13:04:05.061Z,982.3
2022-12-11T13:09:24.362Z,982.4
2022-12-11T13:14:44.472Z,982.4
2022-12-11T13:20:04.278Z,982.4
2022-12-11T13:25:23.331Z,982.3
2022-12-11T13:30:42.298Z,982.3
2022-12-11T13:36:01.910Z,982.3
2022-12-11T13:41:21.545Z,982.4
2022-12-11T13:46:40.784Z,982.4
2022-12-11T13:52:00.388Z,982.3
2022-12-11T13:57:19.461Z,982.3
2022-12-11T14:02:38.756Z,982.3
2022-12-11T14:03:04.884Z,982.3
2022-12-11T14:08:24.171Z,982.3
2022-12-11T14:13:43.232Z,982.2
2022-12-11T14:19:02.820Z,982.2
2022-12-11T14:24:22.333Z,982.3
2022-12-11T14:29:41.656Z,982.3
2022-12-11T14:35:01.070Z,982.3
2022-12-11T14:40:20.200Z,982.3
2022-12-11T14:45:39.883Z,982.3
2022-12-11T14:50:59.166Z,982.4
2022-12-11T14:56:18.180Z,982.4
2022-12-11T15:01:37.207Z,982.5
2022-12-11T15:06:56.847Z,982.5
2022-12-11T15:12:15.479Z,982.5
2022-12-11T15:17:34.782Z,982.5
2022-12-11T15:22:53.608Z,982.5
2022-12-11T15:28:13.128Z,982.6
2022-12-11T15:33:34.677Z,982.6
2022-12-11T15:38:52.949Z,982.7
2022-12-11T15:44:11.815Z,982.7
2022-12-11T15:49:30.682Z,982.7
2022-12-11T15:54:50.478Z,982.7
2022-12-11T16:00:09.592Z,982.7
2022-12-11T16:05:28.535Z,982.8
2022-12-11T16:10:48.344Z,982.8
2022-12-11T16:16:07.723Z,982.8
2022-12-11T16:21:27.103Z,982.9
2022-12-11T16:26:46.223Z,982.8
2022-12-11T16:32:05.096Z,982.8
2022-12-11T16:37:24.506Z,982.8
2022-12-11T16:42:44.278Z,982.8
2022-12-11T16:48:03.158Z,982.8
2022-12-11T16:53:22.664Z,982.8
2022-12-11T16:58:42.260Z,982.9
2022-12-11T17:04:01.437Z,982.8
2022-12-11T17:09:20.374Z,982.8
2022-12-11T17:14:39.859Z,982.8
2022-12-11T17:19:58.944Z,982.7
2022-12-11T17:25:18.275Z,982.7
2022-12-11T17:30:37.673Z,982.8
2022-12-11T17:35:57.250Z,982.9
2022-12-11T17:41:20.245Z,982.8
2022-12-11T17:46:35.915Z,982.8
2022-12-11T17:51:54.766Z,982.8
2022-12-11T17:57:14.141Z,982.8
2022-12-11T18:03:48.368Z,982.8
2022-12-11T18:07:57.590Z,982.9
2022-12-11T18:13:12.340Z,982.9
2022-12-11T18:18:31.566Z,982.9
2022-12-11T18:23:50.947Z,983
2022-12-11T18:29:10.037Z,983
2022-12-11T18:34:29.714Z,983
2022-12-11T18:39:49.443Z,983
2022-12-11T18:45:08.826Z,983
2022-12-11T18:50:28.492Z,983
2022-12-11T18:55:48.072Z,983
2022-12-11T19:01:07.235Z,983
2022-12-11T19:06:26.167Z,983
2022-12-11T19:11:45.694Z,982.9
2022-12-11T19:17:05.608Z,982.8
2022-12-11T19:22:24.784Z,982.8
2022-12-11T19:27:43.923Z,982.9
2022-12-11T19:33:03.379Z,982.9
2022-12-11T19:38:22.614Z,982.9
2022-12-11T19:43:41.903Z,982.8
2022-12-11T19:49:01.443Z,982.9
2022-12-11T19:54:20.534Z,982.8
2022-12-11T19:59:39.695Z,982.9
2022-12-11T20:04:59.354Z,982.9
2022-12-11T20:10:18.365Z,982.9
2022-12-11T20:15:37.578Z,983
2022-12-11T20:20:57.202Z,982.9
2022-12-11T20:26:16.309Z,982.9
2022-12-11T20:31:35.800Z,982.9
2022-12-11T20:36:54.166Z,982.9
2022-12-11T20:42:13.161Z,982.9
2022-12-11T20:47:32.252Z,982.8
2022-12-11T20:52:51.803Z,982.8
2022-12-11T20:58:10.859Z,982.8
2022-12-11T21:03:30.069Z,982.9
2022-12-11T21:08:49.722Z,982.8
2022-12-11T21:14:08.930Z,982.9
2022-12-11T21:19:28.468Z,983
2022-12-11T21:24:47.750Z,982.9
2022-12-11T21:30:07.414Z,982.8
2022-12-11T21:35:27.739Z,982.8
2022-12-11T21:40:47.351Z,982.8
2022-12-11T21:46:06.042Z,982.9
2022-12-11T21:51:25.157Z,982.9
2022-12-11T21:56:44.114Z,983
2022-12-11T22:02:04.318Z,982.9
2022-12-11T22:07:23.157Z,982.8
2022-12-11T22:13:57.275Z,982.9
2022-12-11T22:18:02.932Z,982.8
2022-12-11T22:23:22.008Z,982.9
2022-12-11T22:28:42.015Z,982.9
2022-12-11T22:34:01.149Z,983
2022-12-11T22:39:20.412Z,983
2022-12-11T22:44:39.511Z,983.1
2022-12-11T22:49:58.403Z,983.1
2022-12-11T22:55:17.249Z,983.1
2022-12-11T23:00:35.948Z,983.1
2022-12-11T23:05:55.449Z,983.1
2022-12-11T23:11:15.301Z,983.1
2022-12-11T23:16:34.816Z,983.1
2022-12-11T23:21:53.714Z,983.1
2022-12-11T23:27:13.011Z,983.2
2022-12-11T23:32:31.875Z,983.2
2022-12-11T23:37:51.302Z,983.3
2022-12-11T23:43:11.326Z,983.3
2022-12-11T23:48:30.348Z,983.2
2022-12-11T23:53:49.317Z,983.3
